sensor_id;sensor_type;location;lat;lon;timestamp;P1;durP1;ratioP1;P2;durP2;ratioP2
19951;SDS011;10137;49.406;19.484;2023-02-11T00:02:07;109.03;;;45.43;;
19951;SDS011;10137;49.406;19.484;2023-02-11T00:04:35;90.97;;;38.10;;
19951;SDS011;10137;49.406;19.484;2023-02-11T00:07:02;90.37;;;37.20;;
19951;SDS011;10137;49.406;19.484;2023-02-11T00:09:29;85.80;;;36.43;;
19951;SDS011;10137;49.406;19.484;2023-02-11T00:11:56;81.57;;;36.80;;
19951;SDS011;10137;49.406;19.484;2023-02-11T00:14:23;77.07;;;34.00;;
19951;SDS011;10137;49.406;19.484;2023-02-11T00:16:50;87.87;;;36.37;;
19951;SDS011;10137;49.406;19.484;2023-02-11T00:19:17;79.47;;;34.03;;
19951;SDS011;10137;49.406;19.484;2023-02-11T00:21:48;76.63;;;31.93;;
19951;SDS011;10137;49.406;19.484;2023-02-11T00:24:15;77.43;;;31.73;;
19951;SDS011;10137;49.406;19.484;2023-02-11T00:26:42;71.80;;;29.67;;
19951;SDS011;10137;49.406;19.484;2023-02-11T00:29:10;70.67;;;31.13;;
19951;SDS011;10137;49.406;19.484;2023-02-11T00:31:37;76.50;;;30.80;;
19951;SDS011;10137;49.406;19.484;2023-02-11T00:34:04;66.87;;;29.47;;
19951;SDS011;10137;49.406;19.484;2023-02-11T00:36:32;74.67;;;32.20;;
19951;SDS011;10137;49.406;19.484;2023-02-11T00:39:00;82.27;;;32.73;;
19951;SDS011;10137;49.406;19.484;2023-02-11T00:41:28;68.07;;;30.77;;
19951;SDS011;10137;49.406;19.484;2023-02-11T00:43:57;64.87;;;27.90;;
19951;SDS011;10137;49.406;19.484;2023-02-11T00:46:24;61.90;;;27.70;;
19951;SDS011;10137;49.406;19.484;2023-02-11T00:48:51;65.67;;;28.10;;
19951;SDS011;10137;49.406;19.484;2023-02-11T00:51:21;64.40;;;28.10;;
19951;SDS011;10137;49.406;19.484;2023-02-11T00:53:48;68.37;;;30.23;;
19951;SDS011;10137;49.406;19.484;2023-02-11T00:56:18;72.47;;;30.30;;
19951;SDS011;10137;49.406;19.484;2023-02-11T00:58:47;69.10;;;28.63;;
19951;SDS011;10137;49.406;19.484;2023-02-11T01:01:14;66.47;;;27.77;;
19951;SDS011;10137;49.406;19.484;2023-02-11T01:03:41;66.40;;;28.93;;
19951;SDS011;10137;49.406;19.484;2023-02-11T01:06:08;72.63;;;29.37;;
19951;SDS011;10137;49.406;19.484;2023-02-11T01:08:35;68.13;;;28.70;;
19951;SDS011;10137;49.406;19.484;2023-02-11T01:11:04;68.73;;;28.90;;
19951;SDS011;10137;49.406;19.484;2023-02-11T01:13:34;65.53;;;28.53;;
19951;SDS011;10137;49.406;19.484;2023-02-11T01:16:02;62.60;;;27.93;;
19951;SDS011;10137;49.406;19.484;2023-02-11T01:18:32;71.77;;;28.57;;
19951;SDS011;10137;49.406;19.484;2023-02-11T01:20:59;62.87;;;27.33;;
19951;SDS011;10137;49.406;19.484;2023-02-11T01:23:26;67.37;;;28.53;;
19951;SDS011;10137;49.406;19.484;2023-02-11T01:25:53;64.27;;;27.37;;
19951;SDS011;10137;49.406;19.484;2023-02-11T01:28:21;60.93;;;26.03;;
19951;SDS011;10137;49.406;19.484;2023-02-11T01:30:50;65.07;;;26.87;;
19951;SDS011;10137;49.406;19.484;2023-02-11T01:33:18;63.27;;;26.57;;
19951;SDS011;10137;49.406;19.484;2023-02-11T01:35:45;65.87;;;27.63;;
19951;SDS011;10137;49.406;19.484;2023-02-11T01:38:13;63.20;;;26.30;;
19951;SDS011;10137;49.406;19.484;2023-02-11T01:40:45;59.63;;;26.43;;
19951;SDS011;10137;49.406;19.484;2023-02-11T01:43:14;61.93;;;25.73;;
19951;SDS011;10137;49.406;19.484;2023-02-11T01:48:39;59.97;;;25.93;;
19951;SDS011;10137;49.406;19.484;2023-02-11T01:51:12;60.67;;;25.40;;
19951;SDS011;10137;49.406;19.484;2023-02-11T01:53:45;60.87;;;25.00;;
19951;SDS011;10137;49.406;19.484;2023-02-11T01:56:36;58.80;;;24.20;;
19951;SDS011;10137;49.406;19.484;2023-02-11T01:59:28;61.90;;;25.13;;
19951;SDS011;10137;49.406;19.484;2023-02-11T02:02:01;57.73;;;24.07;;
19951;SDS011;10137;49.406;19.484;2023-02-11T02:04:34;57.93;;;24.17;;
19951;SDS011;10137;49.406;19.484;2023-02-11T02:07:08;60.57;;;26.30;;
19951;SDS011;10137;49.406;19.484;2023-02-11T02:09:41;59.53;;;25.63;;
19951;SDS011;10137;49.406;19.484;2023-02-11T02:12:14;56.40;;;25.37;;
19951;SDS011;10137;49.406;19.484;2023-02-11T02:14:41;59.20;;;25.50;;
19951;SDS011;10137;49.406;19.484;2023-02-11T02:17:10;57.60;;;25.20;;
19951;SDS011;10137;49.406;19.484;2023-02-11T02:19:58;60.40;;;24.77;;
19951;SDS011;10137;49.406;19.484;2023-02-11T02:22:46;55.47;;;25.17;;
19951;SDS011;10137;49.406;19.484;2023-02-11T02:28:42;51.67;;;22.57;;
19951;SDS011;10137;49.406;19.484;2023-02-11T02:31:40;51.10;;;21.63;;
19951;SDS011;10137;49.406;19.484;2023-02-11T02:34:21;48.77;;;22.57;;
19951;SDS011;10137;49.406;19.484;2023-02-11T02:36:54;57.27;;;23.67;;
19951;SDS011;10137;49.406;19.484;2023-02-11T02:39:29;54.90;;;23.13;;
19951;SDS011;10137;49.406;19.484;2023-02-11T02:42:02;56.50;;;22.97;;
19951;SDS011;10137;49.406;19.484;2023-02-11T02:44:32;50.53;;;22.73;;
19951;SDS011;10137;49.406;19.484;2023-02-11T02:46:59;52.17;;;23.03;;
19951;SDS011;10137;49.406;19.484;2023-02-11T02:49:28;55.37;;;23.43;;
19951;SDS011;10137;49.406;19.484;2023-02-11T02:57:36;52.17;;;21.90;;
19951;SDS011;10137;49.406;19.484;2023-02-11T03:00:13;61.87;;;26.27;;
19951;SDS011;10137;49.406;19.484;2023-02-11T03:02:51;54.60;;;23.00;;
19951;SDS011;10137;49.406;19.484;2023-02-11T03:05:34;51.90;;;22.43;;
19951;SDS011;10137;49.406;19.484;2023-02-11T03:08:11;55.60;;;23.10;;
19951;SDS011;10137;49.406;19.484;2023-02-11T03:10:45;50.83;;;24.07;;
19951;SDS011;10137;49.406;19.484;2023-02-11T03:13:15;50.60;;;22.13;;
19951;SDS011;10137;49.406;19.484;2023-02-11T03:15:47;60.50;;;28.27;;
19951;SDS011;10137;49.406;19.484;2023-02-11T03:18:17;49.33;;;22.97;;
19951;SDS011;10137;49.406;19.484;2023-02-11T03:20:52;54.10;;;25.67;;
19951;SDS011;10137;49.406;19.484;2023-02-11T03:23:25;53.77;;;25.07;;
19951;SDS011;10137;49.406;19.484;2023-02-11T03:25:57;51.80;;;24.13;;
19951;SDS011;10137;49.406;19.484;2023-02-11T03:28:28;52.27;;;23.03;;
19951;SDS011;10137;49.406;19.484;2023-02-11T03:31:02;55.97;;;25.23;;
19951;SDS011;10137;49.406;19.484;2023-02-11T03:33:37;50.47;;;23.17;;
19951;SDS011;10137;49.406;19.484;2023-02-11T03:36:09;44.37;;;21.23;;
19951;SDS011;10137;49.406;19.484;2023-02-11T03:38:43;50.57;;;24.13;;
19951;SDS011;10137;49.406;19.484;2023-02-11T03:41:14;72.93;;;31.67;;
19951;SDS011;10137;49.406;19.484;2023-02-11T03:43:45;63.67;;;28.23;;
19951;SDS011;10137;49.406;19.484;2023-02-11T03:46:17;58.43;;;26.60;;
19951;SDS011;10137;49.406;19.484;2023-02-11T03:48:47;62.23;;;29.67;;
19951;SDS011;10137;49.406;19.484;2023-02-11T03:51:18;51.20;;;23.37;;
19951;SDS011;10137;49.406;19.484;2023-02-11T03:53:47;43.13;;;21.40;;
19951;SDS011;10137;49.406;19.484;2023-02-11T03:56:16;46.03;;;21.07;;
19951;SDS011;10137;49.406;19.484;2023-02-11T03:58:47;45.90;;;20.33;;
19951;SDS011;10137;49.406;19.484;2023-02-11T04:01:14;46.03;;;20.93;;
19951;SDS011;10137;49.406;19.484;2023-02-11T04:03:42;46.43;;;19.90;;
19951;SDS011;10137;49.406;19.484;2023-02-11T04:06:09;48.07;;;22.00;;
19951;SDS011;10137;49.406;19.484;2023-02-11T04:08:37;45.27;;;20.00;;
19951;SDS011;10137;49.406;19.484;2023-02-11T04:11:04;48.67;;;20.77;;
19951;SDS011;10137;49.406;19.484;2023-02-11T04:13:31;47.60;;;22.23;;
19951;SDS011;10137;49.406;19.484;2023-02-11T04:15:58;46.40;;;21.03;;
19951;SDS011;10137;49.406;19.484;2023-02-11T04:18:25;48.97;;;21.47;;
19951;SDS011;10137;49.406;19.484;2023-02-11T04:20:52;50.73;;;22.60;;
19951;SDS011;10137;49.406;19.484;2023-02-11T04:23:21;46.50;;;20.43;;
19951;SDS011;10137;49.406;19.484;2023-02-11T04:25:49;38.43;;;19.00;;
19951;SDS011;10137;49.406;19.484;2023-02-11T04:28:19;44.30;;;20.37;;
19951;SDS011;10137;49.406;19.484;2023-02-11T04:30:47;44.17;;;19.57;;
19951;SDS011;10137;49.406;19.484;2023-02-11T04:33:15;43.77;;;20.60;;
19951;SDS011;10137;49.406;19.484;2023-02-11T04:35:43;47.53;;;21.00;;
19951;SDS011;10137;49.406;19.484;2023-02-11T04:38:10;48.60;;;22.07;;
19951;SDS011;10137;49.406;19.484;2023-02-11T04:40:37;44.03;;;20.90;;
19951;SDS011;10137;49.406;19.484;2023-02-11T04:43:07;40.57;;;19.93;;
19951;SDS011;10137;49.406;19.484;2023-02-11T04:45:37;53.50;;;27.40;;
19951;SDS011;10137;49.406;19.484;2023-02-11T04:48:04;71.90;;;41.43;;
19951;SDS011;10137;49.406;19.484;2023-02-11T04:50:31;79.47;;;44.67;;
19951;SDS011;10137;49.406;19.484;2023-02-11T04:52:58;59.03;;;33.47;;
19951;SDS011;10137;49.406;19.484;2023-02-11T04:55:25;46.43;;;23.17;;
19951;SDS011;10137;49.406;19.484;2023-02-11T04:57:53;46.53;;;22.57;;
19951;SDS011;10137;49.406;19.484;2023-02-11T05:00:21;48.93;;;24.50;;
19951;SDS011;10137;49.406;19.484;2023-02-11T05:02:48;46.53;;;21.73;;
19951;SDS011;10137;49.406;19.484;2023-02-11T05:05:17;41.30;;;19.30;;
19951;SDS011;10137;49.406;19.484;2023-02-11T05:07:46;25.47;;;13.13;;
19951;SDS011;10137;49.406;19.484;2023-02-11T05:10:14;26.93;;;13.23;;
19951;SDS011;10137;49.406;19.484;2023-02-11T05:12:44;27.73;;;13.23;;
19951;SDS011;10137;49.406;19.484;2023-02-11T05:15:12;23.90;;;12.70;;
19951;SDS011;10137;49.406;19.484;2023-02-11T05:17:41;23.57;;;12.27;;
19951;SDS011;10137;49.406;19.484;2023-02-11T05:20:08;27.93;;;13.67;;
19951;SDS011;10137;49.406;19.484;2023-02-11T05:22:36;26.03;;;12.50;;
19951;SDS011;10137;49.406;19.484;2023-02-11T05:25:03;29.23;;;14.30;;
19951;SDS011;10137;49.406;19.484;2023-02-11T05:27:31;24.40;;;12.80;;
19951;SDS011;10137;49.406;19.484;2023-02-11T05:29:58;28.27;;;12.50;;
19951;SDS011;10137;49.406;19.484;2023-02-11T05:32:25;26.50;;;12.73;;
19951;SDS011;10137;49.406;19.484;2023-02-11T05:34:54;25.83;;;13.23;;
19951;SDS011;10137;49.406;19.484;2023-02-11T05:37:23;26.83;;;12.93;;
19951;SDS011;10137;49.406;19.484;2023-02-11T05:39:52;24.03;;;11.97;;
19951;SDS011;10137;49.406;19.484;2023-02-11T05:42:19;20.43;;;10.87;;
19951;SDS011;10137;49.406;19.484;2023-02-11T05:44:46;23.73;;;12.30;;
19951;SDS011;10137;49.406;19.484;2023-02-11T05:47:13;23.77;;;11.63;;
19951;SDS011;10137;49.406;19.484;2023-02-11T05:49:40;21.83;;;11.63;;
19951;SDS011;10137;49.406;19.484;2023-02-11T05:52:11;22.80;;;11.60;;
19951;SDS011;10137;49.406;19.484;2023-02-11T05:54:38;20.30;;;11.17;;
19951;SDS011;10137;49.406;19.484;2023-02-11T05:57:05;22.40;;;11.87;;
19951;SDS011;10137;49.406;19.484;2023-02-11T05:59:34;21.60;;;11.97;;
19951;SDS011;10137;49.406;19.484;2023-02-11T06:02:03;24.17;;;11.70;;
19951;SDS011;10137;49.406;19.484;2023-02-11T06:04:33;25.20;;;11.90;;
19951;SDS011;10137;49.406;19.484;2023-02-11T06:07:00;28.20;;;13.27;;
19951;SDS011;10137;49.406;19.484;2023-02-11T06:09:29;24.13;;;11.67;;
19951;SDS011;10137;49.406;19.484;2023-02-11T06:11:56;28.10;;;13.27;;
19951;SDS011;10137;49.406;19.484;2023-02-11T06:14:25;23.53;;;11.23;;
19951;SDS011;10137;49.406;19.484;2023-02-11T06:16:52;22.57;;;11.60;;
19951;SDS011;10137;49.406;19.484;2023-02-11T06:19:18;24.10;;;11.47;;
19951;SDS011;10137;49.406;19.484;2023-02-11T06:21:45;24.23;;;12.13;;
19951;SDS011;10137;49.406;19.484;2023-02-11T06:24:12;22.70;;;11.23;;
19951;SDS011;10137;49.406;19.484;2023-02-11T06:26:41;20.93;;;10.60;;
19951;SDS011;10137;49.406;19.484;2023-02-11T06:29:09;20.97;;;11.47;;
19951;SDS011;10137;49.406;19.484;2023-02-11T06:31:37;22.87;;;11.10;;
19951;SDS011;10137;49.406;19.484;2023-02-11T06:34:05;23.07;;;11.93;;
19951;SDS011;10137;49.406;19.484;2023-02-11T06:36:34;21.40;;;11.43;;
19951;SDS011;10137;49.406;19.484;2023-02-11T06:39:02;26.73;;;13.20;;
19951;SDS011;10137;49.406;19.484;2023-02-11T06:41:29;26.23;;;13.07;;
19951;SDS011;10137;49.406;19.484;2023-02-11T06:43:57;26.70;;;13.90;;
19951;SDS011;10137;49.406;19.484;2023-02-11T06:46:24;30.77;;;13.80;;
19951;SDS011;10137;49.406;19.484;2023-02-11T06:48:53;26.50;;;13.40;;
19951;SDS011;10137;49.406;19.484;2023-02-11T06:51:20;26.93;;;12.97;;
19951;SDS011;10137;49.406;19.484;2023-02-11T06:53:47;26.73;;;13.30;;
19951;SDS011;10137;49.406;19.484;2023-02-11T06:56:15;28.83;;;13.50;;
19951;SDS011;10137;49.406;19.484;2023-02-11T06:58:50;25.70;;;13.13;;
19951;SDS011;10137;49.406;19.484;2023-02-11T07:01:20;26.60;;;13.73;;
19951;SDS011;10137;49.406;19.484;2023-02-11T07:03:48;29.60;;;14.27;;
19951;SDS011;10137;49.406;19.484;2023-02-11T07:06:16;28.93;;;14.40;;
19951;SDS011;10137;49.406;19.484;2023-02-11T07:08:44;26.10;;;13.17;;
19951;SDS011;10137;49.406;19.484;2023-02-11T07:11:12;24.20;;;12.73;;
19951;SDS011;10137;49.406;19.484;2023-02-11T07:13:48;26.03;;;13.50;;
19951;SDS011;10137;49.406;19.484;2023-02-11T07:16:16;25.37;;;12.70;;
19951;SDS011;10137;49.406;19.484;2023-02-11T07:18:46;25.07;;;13.03;;
19951;SDS011;10137;49.406;19.484;2023-02-11T07:21:15;28.30;;;14.23;;
19951;SDS011;10137;49.406;19.484;2023-02-11T07:23:44;33.13;;;16.13;;
19951;SDS011;10137;49.406;19.484;2023-02-11T07:26:13;32.83;;;15.23;;
19951;SDS011;10137;49.406;19.484;2023-02-11T07:28:42;34.67;;;15.30;;
19951;SDS011;10137;49.406;19.484;2023-02-11T07:31:10;27.03;;;13.20;;
19951;SDS011;10137;49.406;19.484;2023-02-11T07:33:39;26.70;;;13.83;;
19951;SDS011;10137;49.406;19.484;2023-02-11T07:36:07;25.10;;;12.70;;
19951;SDS011;10137;49.406;19.484;2023-02-11T07:38:36;23.53;;;12.57;;
19951;SDS011;10137;49.406;19.484;2023-02-11T07:41:04;24.63;;;13.00;;
19951;SDS011;10137;49.406;19.484;2023-02-11T07:43:33;23.53;;;13.20;;
19951;SDS011;10137;49.406;19.484;2023-02-11T07:46:02;28.67;;;14.03;;
19951;SDS011;10137;49.406;19.484;2023-02-11T07:48:30;25.60;;;13.47;;
19951;SDS011;10137;49.406;19.484;2023-02-11T07:51:04;23.70;;;12.67;;
19951;SDS011;10137;49.406;19.484;2023-02-11T07:53:34;22.03;;;11.87;;
19951;SDS011;10137;49.406;19.484;2023-02-11T07:56:01;20.93;;;11.37;;
19951;SDS011;10137;49.406;19.484;2023-02-11T07:58:29;27.33;;;11.47;;
19951;SDS011;10137;49.406;19.484;2023-02-11T08:00:59;23.20;;;11.47;;
19951;SDS011;10137;49.406;19.484;2023-02-11T08:03:27;25.00;;;12.70;;
19951;SDS011;10137;49.406;19.484;2023-02-11T08:05:54;26.67;;;13.67;;
19951;SDS011;10137;49.406;19.484;2023-02-11T08:08:26;27.37;;;13.97;;
19951;SDS011;10137;49.406;19.484;2023-02-11T08:10:56;27.77;;;14.27;;
19951;SDS011;10137;49.406;19.484;2023-02-11T08:13:23;26.13;;;13.77;;
19951;SDS011;10137;49.406;19.484;2023-02-11T08:15:56;27.33;;;14.30;;
19951;SDS011;10137;49.406;19.484;2023-02-11T08:18:23;33.00;;;16.13;;
19951;SDS011;10137;49.406;19.484;2023-02-11T08:20:49;28.83;;;15.53;;
19951;SDS011;10137;49.406;19.484;2023-02-11T08:23:17;30.07;;;16.60;;
19951;SDS011;10137;49.406;19.484;2023-02-11T08:25:46;33.37;;;16.93;;
19951;SDS011;10137;49.406;19.484;2023-02-11T08:28:17;31.63;;;17.03;;
19951;SDS011;10137;49.406;19.484;2023-02-11T08:30:47;30.47;;;16.90;;
19951;SDS011;10137;49.406;19.484;2023-02-11T08:33:20;32.90;;;17.13;;
19951;SDS011;10137;49.406;19.484;2023-02-11T08:35:49;30.07;;;15.87;;
19951;SDS011;10137;49.406;19.484;2023-02-11T08:38:16;26.77;;;15.23;;
19951;SDS011;10137;49.406;19.484;2023-02-11T08:40:43;30.07;;;14.70;;
19951;SDS011;10137;49.406;19.484;2023-02-11T08:43:10;30.27;;;15.40;;
19951;SDS011;10137;49.406;19.484;2023-02-11T08:45:39;31.03;;;15.27;;
19951;SDS011;10137;49.406;19.484;2023-02-11T08:48:06;29.27;;;14.83;;
19951;SDS011;10137;49.406;19.484;2023-02-11T08:50:33;28.90;;;15.60;;
19951;SDS011;10137;49.406;19.484;2023-02-11T08:53:03;28.73;;;15.83;;
19951;SDS011;10137;49.406;19.484;2023-02-11T08:55:30;30.43;;;15.13;;
19951;SDS011;10137;49.406;19.484;2023-02-11T08:57:57;31.73;;;15.27;;
19951;SDS011;10137;49.406;19.484;2023-02-11T09:00:24;28.60;;;15.43;;
19951;SDS011;10137;49.406;19.484;2023-02-11T09:02:53;27.77;;;14.63;;
19951;SDS011;10137;49.406;19.484;2023-02-11T09:05:24;27.37;;;14.67;;
19951;SDS011;10137;49.406;19.484;2023-02-11T09:07:52;28.63;;;15.03;;
19951;SDS011;10137;49.406;19.484;2023-02-11T09:10:19;28.97;;;15.30;;
19951;SDS011;10137;49.406;19.484;2023-02-11T09:12:46;28.47;;;14.80;;
19951;SDS011;10137;49.406;19.484;2023-02-11T09:15:13;28.83;;;15.13;;
19951;SDS011;10137;49.406;19.484;2023-02-11T09:17:40;28.03;;;15.07;;
19951;SDS011;10137;49.406;19.484;2023-02-11T09:20:09;30.13;;;15.20;;
19951;SDS011;10137;49.406;19.484;2023-02-11T09:22:37;26.40;;;14.83;;
19951;SDS011;10137;49.406;19.484;2023-02-11T09:25:07;27.23;;;14.47;;
19951;SDS011;10137;49.406;19.484;2023-02-11T09:27:34;24.53;;;14.33;;
19951;SDS011;10137;49.406;19.484;2023-02-11T09:30:01;28.27;;;15.00;;
19951;SDS011;10137;49.406;19.484;2023-02-11T09:32:28;24.40;;;14.23;;
19951;SDS011;10137;49.406;19.484;2023-02-11T09:34:57;32.80;;;16.73;;
19951;SDS011;10137;49.406;19.484;2023-02-11T09:37:26;30.60;;;16.50;;
19951;SDS011;10137;49.406;19.484;2023-02-11T09:39:53;36.00;;;18.47;;
19951;SDS011;10137;49.406;19.484;2023-02-11T09:45:14;24.80;;;15.00;;
19951;SDS011;10137;49.406;19.484;2023-02-11T09:47:46;27.40;;;15.73;;
19951;SDS011;10137;49.406;19.484;2023-02-11T09:50:21;26.40;;;14.20;;
19951;SDS011;10137;49.406;19.484;2023-02-11T09:52:54;22.80;;;13.70;;
19951;SDS011;10137;49.406;19.484;2023-02-11T09:55:28;21.63;;;12.23;;
19951;SDS011;10137;49.406;19.484;2023-02-11T09:57:58;23.17;;;13.33;;
19951;SDS011;10137;49.406;19.484;2023-02-11T10:00:31;21.00;;;12.53;;
19951;SDS011;10137;49.406;19.484;2023-02-11T10:03:08;23.60;;;13.97;;
19951;SDS011;10137;49.406;19.484;2023-02-11T10:09:03;23.10;;;13.60;;
19951;SDS011;10137;49.406;19.484;2023-02-11T10:11:49;24.50;;;14.63;;
19951;SDS011;10137;49.406;19.484;2023-02-11T10:14:27;23.47;;;14.20;;
19951;SDS011;10137;49.406;19.484;2023-02-11T10:17:21;39.83;;;21.63;;
19951;SDS011;10137;49.406;19.484;2023-02-11T10:20:02;23.93;;;14.70;;
19951;SDS011;10137;49.406;19.484;2023-02-11T10:22:38;34.33;;;17.63;;
19951;SDS011;10137;49.406;19.484;2023-02-11T10:25:16;27.33;;;14.57;;
19951;SDS011;10137;49.406;19.484;2023-02-11T10:27:49;27.97;;;14.97;;
19951;SDS011;10137;49.406;19.484;2023-02-11T10:30:21;26.27;;;14.07;;
19951;SDS011;10137;49.406;19.484;2023-02-11T10:32:54;28.53;;;15.43;;
19951;SDS011;10137;49.406;19.484;2023-02-11T10:35:25;27.10;;;16.40;;
19951;SDS011;10137;49.406;19.484;2023-02-11T10:37:52;26.27;;;13.50;;
19951;SDS011;10137;49.406;19.484;2023-02-11T10:40:22;20.87;;;12.50;;
19951;SDS011;10137;49.406;19.484;2023-02-11T10:42:52;23.87;;;13.20;;
19951;SDS011;10137;49.406;19.484;2023-02-11T10:45:22;20.90;;;13.47;;
19951;SDS011;10137;49.406;19.484;2023-02-11T10:47:53;20.27;;;12.30;;
19951;SDS011;10137;49.406;19.484;2023-02-11T10:50:24;23.37;;;13.30;;
19951;SDS011;10137;49.406;19.484;2023-02-11T10:52:53;20.57;;;12.47;;
19951;SDS011;10137;49.406;19.484;2023-02-11T10:55:49;21.23;;;13.20;;
19951;SDS011;10137;49.406;19.484;2023-02-11T10:58:22;23.67;;;13.20;;
19951;SDS011;10137;49.406;19.484;2023-02-11T11:00:54;23.23;;;13.60;;
19951;SDS011;10137;49.406;19.484;2023-02-11T11:03:24;25.33;;;14.20;;
19951;SDS011;10137;49.406;19.484;2023-02-11T11:05:54;25.73;;;13.53;;
19951;SDS011;10137;49.406;19.484;2023-02-11T11:08:35;22.37;;;13.47;;
19951;SDS011;10137;49.406;19.484;2023-02-11T11:11:08;23.53;;;13.03;;
19951;SDS011;10137;49.406;19.484;2023-02-11T11:13:39;21.73;;;13.40;;
19951;SDS011;10137;49.406;19.484;2023-02-11T11:16:21;26.53;;;14.17;;
19951;SDS011;10137;49.406;19.484;2023-02-11T11:18:50;24.73;;;14.83;;
19951;SDS011;10137;49.406;19.484;2023-02-11T11:21:21;22.57;;;13.13;;
19951;SDS011;10137;49.406;19.484;2023-02-11T11:23:51;25.93;;;14.47;;
19951;SDS011;10137;49.406;19.484;2023-02-11T11:26:24;25.23;;;14.37;;
19951;SDS011;10137;49.406;19.484;2023-02-11T11:28:55;25.63;;;14.63;;
19951;SDS011;10137;49.406;19.484;2023-02-11T11:31:25;28.17;;;15.83;;
19951;SDS011;10137;49.406;19.484;2023-02-11T11:33:55;26.87;;;15.83;;
19951;SDS011;10137;49.406;19.484;2023-02-11T11:36:30;25.17;;;14.30;;
19951;SDS011;10137;49.406;19.484;2023-02-11T11:39:16;28.40;;;15.00;;
19951;SDS011;10137;49.406;19.484;2023-02-11T11:41:53;30.90;;;16.17;;
19951;SDS011;10137;49.406;19.484;2023-02-11T11:44:28;27.10;;;15.30;;
19951;SDS011;10137;49.406;19.484;2023-02-11T11:50:09;25.90;;;14.37;;
19951;SDS011;10137;49.406;19.484;2023-02-11T11:52:45;26.57;;;15.33;;
19951;SDS011;10137;49.406;19.484;2023-02-11T11:55:20;27.33;;;15.30;;
19951;SDS011;10137;49.406;19.484;2023-02-11T11:57:50;26.17;;;15.50;;
19951;SDS011;10137;49.406;19.484;2023-02-11T12:00:19;25.17;;;14.83;;
19951;SDS011;10137;49.406;19.484;2023-02-11T12:05:50;53.50;;;26.07;;
19951;SDS011;10137;49.406;19.484;2023-02-11T12:08:35;28.50;;;16.50;;
19951;SDS011;10137;49.406;19.484;2023-02-11T12:11:09;36.90;;;20.50;;
19951;SDS011;10137;49.406;19.484;2023-02-11T12:13:51;30.33;;;17.47;;
19951;SDS011;10137;49.406;19.484;2023-02-11T12:16:32;28.60;;;16.23;;
19951;SDS011;10137;49.406;19.484;2023-02-11T12:19:21;28.27;;;16.40;;
19951;SDS011;10137;49.406;19.484;2023-02-11T12:22:10;30.47;;;17.10;;
19951;SDS011;10137;49.406;19.484;2023-02-11T12:24:51;28.53;;;17.43;;
19951;SDS011;10137;49.406;19.484;2023-02-11T12:27:38;28.30;;;16.17;;
19951;SDS011;10137;49.406;19.484;2023-02-11T12:30:19;25.60;;;15.10;;
19951;SDS011;10137;49.406;19.484;2023-02-11T12:32:59;26.13;;;14.77;;
19951;SDS011;10137;49.406;19.484;2023-02-11T12:35:35;25.43;;;15.20;;
19951;SDS011;10137;49.406;19.484;2023-02-11T12:38:16;28.73;;;16.37;;
19951;SDS011;10137;49.406;19.484;2023-02-11T12:40:57;31.47;;;18.20;;
19951;SDS011;10137;49.406;19.484;2023-02-11T12:43:34;31.50;;;17.07;;
19951;SDS011;10137;49.406;19.484;2023-02-11T12:46:16;33.27;;;17.30;;
19951;SDS011;10137;49.406;19.484;2023-02-11T12:51:51;28.60;;;16.83;;
19951;SDS011;10137;49.406;19.484;2023-02-11T12:54:30;30.60;;;16.63;;
19951;SDS011;10137;49.406;19.484;2023-02-11T12:57:12;32.40;;;17.43;;
19951;SDS011;10137;49.406;19.484;2023-02-11T12:59:45;31.70;;;16.77;;
19951;SDS011;10137;49.406;19.484;2023-02-11T13:02:22;32.00;;;17.70;;
19951;SDS011;10137;49.406;19.484;2023-02-11T13:04:58;31.47;;;18.73;;
19951;SDS011;10137;49.406;19.484;2023-02-11T13:07:31;34.07;;;19.03;;
19951;SDS011;10137;49.406;19.484;2023-02-11T13:10:03;37.20;;;18.50;;
19951;SDS011;10137;49.406;19.484;2023-02-11T13:12:40;35.00;;;18.77;;
19951;SDS011;10137;49.406;19.484;2023-02-11T13:15:28;31.03;;;18.63;;
19951;SDS011;10137;49.406;19.484;2023-02-11T13:17:58;34.23;;;18.53;;
19951;SDS011;10137;49.406;19.484;2023-02-11T13:20:35;32.23;;;18.23;;
19951;SDS011;10137;49.406;19.484;2023-02-11T13:23:17;33.03;;;17.27;;
19951;SDS011;10137;49.406;19.484;2023-02-11T13:25:51;37.20;;;17.87;;
19951;SDS011;10137;49.406;19.484;2023-02-11T13:28:27;34.40;;;19.10;;
19951;SDS011;10137;49.406;19.484;2023-02-11T13:31:07;36.20;;;19.13;;
19951;SDS011;10137;49.406;19.484;2023-02-11T13:33:38;33.80;;;18.27;;
19951;SDS011;10137;49.406;19.484;2023-02-11T13:36:11;51.33;;;20.37;;
19951;SDS011;10137;49.406;19.484;2023-02-11T13:39:02;37.93;;;19.77;;
19951;SDS011;10137;49.406;19.484;2023-02-11T13:41:33;43.27;;;19.67;;
19951;SDS011;10137;49.406;19.484;2023-02-11T13:44:12;36.90;;;19.83;;
19951;SDS011;10137;49.406;19.484;2023-02-11T13:46:49;36.63;;;19.17;;
19951;SDS011;10137;49.406;19.484;2023-02-11T13:49:32;34.47;;;19.50;;
19951;SDS011;10137;49.406;19.484;2023-02-11T13:52:05;33.70;;;17.57;;
19951;SDS011;10137;49.406;19.484;2023-02-11T13:54:46;35.07;;;17.83;;
19951;SDS011;10137;49.406;19.484;2023-02-11T14:06:27;40.00;;;21.33;;
19951;SDS011;10137;49.406;19.484;2023-02-11T14:09:36;37.13;;;20.97;;
19951;SDS011;10137;49.406;19.484;2023-02-11T14:15:09;38.33;;;19.73;;
19951;SDS011;10137;49.406;19.484;2023-02-11T14:17:44;35.83;;;19.83;;
19951;SDS011;10137;49.406;19.484;2023-02-11T14:23:01;37.97;;;19.37;;
19951;SDS011;10137;49.406;19.484;2023-02-11T14:25:28;33.93;;;17.87;;
19951;SDS011;10137;49.406;19.484;2023-02-11T14:27:58;36.77;;;19.60;;
19951;SDS011;10137;49.406;19.484;2023-02-11T14:30:34;36.30;;;21.00;;
19951;SDS011;10137;49.406;19.484;2023-02-11T14:33:37;35.80;;;19.77;;
19951;SDS011;10137;49.406;19.484;2023-02-11T14:39:27;36.77;;;20.37;;
19951;SDS011;10137;49.406;19.484;2023-02-11T14:42:08;31.63;;;18.47;;
19951;SDS011;10137;49.406;19.484;2023-02-11T14:44:45;36.97;;;20.27;;
19951;SDS011;10137;49.406;19.484;2023-02-11T14:47:16;35.70;;;19.47;;
19951;SDS011;10137;49.406;19.484;2023-02-11T14:49:46;35.63;;;19.07;;
19951;SDS011;10137;49.406;19.484;2023-02-11T14:52:24;37.40;;;20.33;;
19951;SDS011;10137;49.406;19.484;2023-02-11T14:54:57;41.57;;;21.13;;
19951;SDS011;10137;49.406;19.484;2023-02-11T14:57:32;41.00;;;22.10;;
19951;SDS011;10137;49.406;19.484;2023-02-11T15:00:02;36.93;;;20.07;;
19951;SDS011;10137;49.406;19.484;2023-02-11T15:02:33;40.80;;;19.60;;
19951;SDS011;10137;49.406;19.484;2023-02-11T15:07:50;38.93;;;20.40;;
19951;SDS011;10137;49.406;19.484;2023-02-11T15:10:24;40.07;;;21.90;;
19951;SDS011;10137;49.406;19.484;2023-02-11T15:12:56;41.67;;;22.63;;
19951;SDS011;10137;49.406;19.484;2023-02-11T15:15:25;44.50;;;21.37;;
19951;SDS011;10137;49.406;19.484;2023-02-11T15:17:53;39.83;;;20.70;;
19951;SDS011;10137;49.406;19.484;2023-02-11T15:20:24;42.97;;;22.40;;
19951;SDS011;10137;49.406;19.484;2023-02-11T15:22:54;35.27;;;20.00;;